Time;durP1;ratioP1;P1;durP2;ratioP2;P2;SDS_P1;SDS_P2;PMS_P1;PMS_P2;Temp;Humidity;BMP_temperature;BMP_pressure;BME280_temperature;BME280_humidity;BME280_pressure;Samples;Min_cycle;Max_cycle;Signal;HPM_P1;HPM_P2
2024/01/10 00:02:23;;;;;;;;;;;;;;;22.26;13.93;98952.69;5018344;28;1485;-75
2024/01/10 00:04:49;;;;;;;;;;;;;;;22.52;13.67;98949.06;5018089;28;1115;-75
2024/01/10 00:07:14;;;;;;;;;;;;;;;22.36;13.69;98946.88;5020621;28;1116;-76
2024/01/10 00:09:40;;;;;;;;;;;;;;;22.13;13.72;98955.31;5038279;28;1214;-75
2024/01/10 00:12:06;;;;;;;;;;;;;;;22.03;13.96;98957.03;5055730;28;1901;-75
2024/01/10 00:14:31;;;;;;;;;;;;;;;21.70;14.20;98955.81;5057007;28;909;-75
2024/01/10 00:16:57;;;;;;;;;;;;;;;21.50;14.13;98881.22;5056535;28;980;-76
2024/01/10 00:19:22;;;;;;;;;;;;;;;22.30;13.69;98957.09;5038881;28;917;-75
2024/01/10 00:21:48;;;;;;;;;;;;;;;22.08;13.66;98955.75;5055555;28;977;-75
2024/01/10 00:24:14;;;;;;;;;;;;;;;22.15;13.71;98950.00;5053955;28;1181;-75
2024/01/10 00:26:39;;;;;;;;;;;;;;;21.98;14.16;98956.72;5037617;28;1134;-75
2024/01/10 00:29:05;;;;;;;;;;;;;;;21.87;13.93;98962.50;5054199;28;1054;-75
2024/01/10 00:31:30;;;;;;;;;;;;;;;22.29;13.78;98966.03;5037534;28;1988;-75
2024/01/10 00:33:56;;;;;;;;;;;;;;;22.18;13.73;98971.06;5033267;28;1028;-75
2024/01/10 00:36:22;;;;;;;;;;;;;;;22.24;13.59;98964.47;5037614;28;1124;-75
2024/01/10 00:38:47;;;;;;;;;;;;;;;22.11;13.87;98971.94;5020927;28;1212;-75
2024/01/10 00:41:13;;;;;;;;;;;;;;;21.99;14.18;98981.78;5037632;28;1025;-76
2024/01/10 00:43:38;;;;;;;;;;;;;;;22.02;13.81;98980.09;5053822;28;981;-76
2024/01/10 00:46:04;;;;;;;;;;;;;;;22.06;13.76;98986.53;5021394;28;963;-75
2024/01/10 00:48:30;;;;;;;;;;;;;;;22.13;13.82;98991.38;5054046;28;1036;-76
2024/01/10 00:50:55;;;;;;;;;;;;;;;22.34;13.86;98997.53;5053956;28;985;-75
2024/01/10 00:53:21;;;;;;;;;;;;;;;21.91;14.28;99002.13;5037436;28;1910;-76
2024/01/10 00:55:47;;;;;;;;;;;;;;;22.07;13.77;99000.31;5053237;28;1070;-76
2024/01/10 00:58:12;;;;;;;;;;;;;;;22.18;13.82;99011.53;5037256;28;973;-75
2024/01/10 01:00:38;;;;;;;;;;;;;;;22.29;13.87;99014.22;5054043;28;1023;-76
2024/01/10 01:03:04;;;;;;;;;;;;;;;22.38;13.77;99008.03;5053465;28;964;-76
2024/01/10 01:05:29;;;;;;;;;;;;;;;22.50;13.75;99015.97;5053748;28;1122;-76
2024/01/10 01:07:55;;;;;;;;;;;;;;;22.39;13.84;99009.66;5006010;28;969;-76
2024/01/10 01:10:20;;;;;;;;;;;;;;;22.30;13.56;98996.78;5018630;28;1287;-75
2024/01/10 01:12:46;;;;;;;;;;;;;;;22.14;13.78;99005.09;5036788;28;1906;-75
2024/01/10 01:15:12;;;;;;;;;;;;;;;22.51;13.80;99000.56;5053775;28;948;-75
2024/01/10 01:17:37;;;;;;;;;;;;;;;22.30;13.65;98996.78;5053391;28;976;-76
2024/01/10 01:20:04;;;;;;;;;;;;;;;22.49;13.75;99003.03;5020198;28;1162;-76
2024/01/10 01:22:31;;;;;;;;;;;;;;;22.48;13.73;99007.06;5037133;28;977;-76
2024/01/10 01:24:57;;;;;;;;;;;;;;;22.30;13.52;98995.97;5053196;28;1240;-75
2024/01/10 01:27:23;;;;;;;;;;;;;;;22.22;13.97;99000.13;5020775;28;1321;-75
2024/01/10 01:29:49;;;;;;;;;;;;;;;22.23;13.65;98996.91;5053112;28;1010;-75
2024/01/10 01:32:14;;;;;;;;;;;;;;;22.25;13.92;98988.75;5036862;28;1977;-75
2024/01/10 01:34:40;;;;;;;;;;;;;;;22.25;13.77;98977.41;5017000;28;1000;-75
2024/01/10 01:37:05;;;;;;;;;;;;;;;22.28;13.87;98979.41;5033605;28;1217;-76
2024/01/10 01:39:31;;;;;;;;;;;;;;;22.40;13.82;98974.38;5033248;28;988;-76
2024/01/10 01:41:56;;;;;;;;;;;;;;;22.36;13.62;98980.91;5033311;28;966;-75
2024/01/10 01:44:22;;;;;;;;;;;;;;;22.16;13.95;98971.47;5035070;28;1240;-76
2024/01/10 01:46:48;;;;;;;;;;;;;;;22.08;14.06;98984.09;5037627;28;992;-75
2024/01/10 01:49:14;;;;;;;;;;;;;;;22.28;13.79;98973.75;5020723;28;959;-75
2024/01/10 01:51:39;;;;;;;;;;;;;;;22.45;13.66;98979.56;5020789;28;1967;-76
2024/01/10 01:54:06;;;;;;;;;;;;;;;22.25;13.92;98971.75;5020821;28;1478;-75
2024/01/10 01:56:31;;;;;;;;;;;;;;;22.21;13.85;98982.31;5021007;28;1347;-75
2024/01/10 01:58:57;;;;;;;;;;;;;;;22.30;13.89;98978.97;5020761;28;987;-75
2024/01/10 02:01:22;;;;;;;;;;;;;;;22.48;13.77;98975.88;5035659;28;1007;-75
2024/01/10 02:03:48;;;;;;;;;;;;;;;22.32;13.83;98980.13;5040761;28;981;-76
2024/01/10 02:06:14;;;;;;;;;;;;;;;21.76;14.15;98968.31;5057880;28;941;-75
2024/01/10 02:08:39;;;;;;;;;;;;;;;22.35;13.79;98975.66;5057936;28;1036;-75
2024/01/10 02:11:05;;;;;;;;;;;;;;;22.36;13.66;98968.75;5057885;28;1898;-75
2024/01/10 02:13:33;;;;;;;;;;;;;;;22.20;14.01;98960.88;5057681;28;954;-76
2024/01/10 02:15:59;;;;;;;;;;;;;;;22.20;13.99;98958.03;5041277;28;931;-75
2024/01/10 02:18:25;;;;;;;;;;;;;;;22.32;13.90;98960.28;5058055;28;994;-76
2024/01/10 02:20:51;;;;;;;;;;;;;;;22.26;13.71;98947.03;5058158;28;925;-75
2024/01/10 02:23:17;;;;;;;;;;;;;;;22.37;13.74;98939.16;5057520;28;929;-76
2024/01/10 02:25:42;;;;;;;;;;;;;;;22.19;14.04;98944.31;5058159;28;912;-75
2024/01/10 02:28:11;;;;;;;;;;;;;;;22.45;13.77;98939.88;5059116;28;895;-76
2024/01/10 02:30:36;;;;;;;;;;;;;;;22.40;13.50;98943.19;5057628;28;1216;-75
2024/01/10 02:33:02;;;;;;;;;;;;;;;22.11;13.86;98929.41;5019772;28;1910;-75
2024/01/10 02:35:28;;;;;;;;;;;;;;;22.26;13.60;98933.66;5020071;28;1240;-76
2024/01/10 02:37:54;;;;;;;;;;;;;;;22.26;13.77;98924.34;5019852;28;1012;-76
2024/01/10 02:40:20;;;;;;;;;;;;;;;21.96;14.19;98919.47;5020323;28;1010;-75
2024/01/10 02:42:45;;;;;;;;;;;;;;;22.18;13.95;98929.34;5036690;28;971;-76
2024/01/10 02:45:11;;;;;;;;;;;;;;;22.17;13.87;98926.91;5019820;28;1030;-75
2024/01/10 02:47:37;;;;;;;;;;;;;;;22.38;13.56;98931.47;5036536;28;963;-76
2024/01/10 02:50:03;;;;;;;;;;;;;;;22.34;13.83;98931.53;5036464;28;956;-76
2024/01/10 02:52:29;;;;;;;;;;;;;;;22.26;13.71;98933.66;5035757;28;1913;-75
2024/01/10 02:54:55;;;;;;;;;;;;;;;22.35;13.57;98930.28;5019461;28;1024;-75
2024/01/10 02:57:20;;;;;;;;;;;;;;;22.40;13.43;98929.81;5002798;28;1293;-75
2024/01/10 02:59:46;;;;;;;;;;;;;;;22.57;13.61;98936.44;5019571;28;987;-76
2024/01/10 03:02:11;;;;;;;;;;;;;;;22.30;13.40;98940.06;5019408;28;1030;-76
2024/01/10 03:04:37;;;;;;;;;;;;;;;22.17;13.46;98941.88;5030772;28;936;-75
2024/01/10 03:07:03;;;;;;;;;;;;;;;22.26;13.41;98945.00;5035955;28;944;-76
2024/01/10 03:09:28;;;;;;;;;;;;;;;22.39;13.30;98945.22;5019359;28;1020;-75
2024/01/10 03:11:54;;;;;;;;;;;;;;;22.39;13.49;98945.22;5036080;28;1983;-76
2024/01/10 03:14:19;;;;;;;;;;;;;;;22.33;13.25;98950.59;5035701;28;961;-75
2024/01/10 03:16:45;;;;;;;;;;;;;;;22.27;13.19;98952.25;5035690;28;939;-76
2024/01/10 03:19:11;;;;;;;;;;;;;;;22.34;13.20;98955.00;5035985;28;969;-76
2024/01/10 03:21:36;;;;;;;;;;;;;;;22.20;13.46;98949.53;5019168;28;1240;-75
2024/01/10 03:24:02;;;;;;;;;;;;;;;22.30;13.25;98945.75;5035433;28;947;-76
2024/01/10 03:26:28;;;;;;;;;;;;;;;22.24;13.41;98947.47;5015563;28;987;-75
2024/01/10 03:28:53;;;;;;;;;;;;;;;22.20;13.20;98949.53;5015765;28;946;-76
2024/01/10 03:31:19;;;;;;;;;;;;;;;22.17;13.10;98952.41;4995952;28;1887;-76
2024/01/10 03:33:45;;;;;;;;;;;;;;;22.15;13.16;98941.50;4979993;28;990;-76
2024/01/10 03:36:14;;;;;;;;;;;;;;;22.19;13.25;98936.59;4996137;28;1069;-76
2024/01/10 03:38:40;;;;;;;;;;;;;;;22.23;13.37;98928.84;4980055;28;1023;-76
2024/01/10 03:41:06;;;;;;;;;;;;;;;22.04;13.28;98932.31;5000439;28;992;-76
2024/01/10 03:43:31;;;;;;;;;;;;;;;21.89;13.61;98936.56;5002653;28;1152;-76
2024/01/10 03:45:57;;;;;;;;;;;;;;;22.02;13.57;98929.09;5018699;28;1330;-76
2024/01/10 03:48:23;;;;;;;;;;;;;;;21.85;13.48;98923.25;5002417;28;1187;-75
2024/01/10 03:50:48;;;;;;;;;;;;;;;22.17;13.21;98922.03;5018720;28;1051;-76
2024/01/10 03:53:14;;;;;;;;;;;;;;;22.16;13.54;98922.47;4995411;28;1906;-76
2024/01/10 03:55:39;;;;;;;;;;;;;;;22.23;13.47;98917.50;4963349;28;967;-75
2024/01/10 03:58:05;;;;;;;;;;;;;;;22.28;13.18;98924.75;4995689;28;995;-76
2024/01/10 04:00:31;;;;;;;;;;;;;;;22.42;13.28;98918.84;4956484;28;1003;-76
2024/01/10 04:02:56;;;;;;;;;;;;;;;22.24;13.25;98941.00;4973135;28;993;-76
2024/01/10 04:05:24;;;;;;;;;;;;;;;22.39;13.25;98924.59;4978785;28;996;-76
2024/01/10 04:07:50;;;;;;;;;;;;;;;22.25;13.29;98922.75;4995446;28;989;-76
2024/01/10 04:10:15;;;;;;;;;;;;;;;22.26;13.66;98927.97;4979151;28;1651;-76
2024/01/10 04:12:41;;;;;;;;;;;;;;;21.77;13.82;98924.59;4995298;28;1914;-76
2024/01/10 04:15:07;;;;;;;;;;;;;;;22.22;13.53;98924.41;4995336;28;914;-77
2024/01/10 04:17:32;;;;;;;;;;;;;;;22.31;13.34;98936.00;4995081;28;990;-75
2024/01/10 04:19:58;;;;;;;;;;;;;;;22.40;13.59;98926.19;4978652;28;1006;-75
2024/01/10 04:22:24;;;;;;;;;;;;;;;21.99;13.68;98929.97;4995303;28;1012;-75
2024/01/10 04:24:49;;;;;;;;;;;;;;;21.50;14.10;98935.00;4994722;28;1015;-76
2024/01/10 04:27:15;;;;;;;;;;;;;;;21.80;13.79;98923.72;5014502;28;954;-76
2024/01/10 04:29:40;;;;;;;;;;;;;;;21.66;13.98;98925.91;5016098;28;996;-75
2024/01/10 04:32:06;;;;;;;;;;;;;;;22.07;13.75;98915.28;5049315;28;1902;-76
2024/01/10 04:34:32;;;;;;;;;;;;;;;22.04;13.73;98927.47;5017633;28;1119;-76
2024/01/10 04:36:57;;;;;;;;;;;;;;;22.32;13.45;98931.94;5017527;28;1715;-76
2024/01/10 04:39:23;;;;;;;;;;;;;;;22.09;13.67;98926.97;5033572;28;1254;-75
2024/01/10 04:41:49;;;;;;;;;;;;;;;22.17;13.59;98922.03;5017840;28;1014;-75
2024/01/10 04:44:14;;;;;;;;;;;;;;;22.25;13.74;98945.44;5017591;28;958;-76
2024/01/10 04:46:41;;;;;;;;;;;;;;;22.23;13.53;98945.88;5017591;28;900;-76
2024/01/10 04:49:06;;;;;;;;;;;;;;;21.98;13.78;98946.16;5034242;28;956;-76
2024/01/10 04:51:32;;;;;;;;;;;;;;;22.17;13.87;98952.41;5034079;28;1969;-75
2024/01/10 04:53:58;;;;;;;;;;;;;;;21.81;14.23;98965.00;5017580;28;925;-75
2024/01/10 04:56:23;;;;;;;;;;;;;;;22.16;13.59;98962.16;5017662;28;983;-76
2024/01/10 04:58:49;;;;;;;;;;;;;;;22.24;13.83;98969.34;5032189;28;1229;-76
2024/01/10 05:01:14;;;;;;;;;;;;;;;22.08;13.93;98961.44;5054223;28;1285;-76
2024/01/10 05:03:40;;;;;;;;;;;;;;;22.31;13.84;98969.22;5053760;28;953;-76
2024/01/10 05:06:06;;;;;;;;;;;;;;;22.26;13.72;98979.00;5054726;28;943;-76
2024/01/10 05:08:31;;;;;;;;;;;;;;;22.15;13.85;98975.53;5038122;28;979;-75
2024/01/10 05:10:57;;;;;;;;;;;;;;;22.20;13.93;98983.56;5037989;28;1262;-76
2024/01/10 05:13:22;;;;;;;;;;;;;;;22.20;13.88;98991.25;5037790;28;1914;-75
2024/01/10 05:15:48;;;;;;;;;;;;;;;22.14;13.82;98993.78;5037117;28;1051;-76
2024/01/10 05:18:13;;;;;;;;;;;;;;;22.35;13.62;98999.16;5055156;28;1113;-76
2024/01/10 05:20:39;;;;;;;;;;;;;;;22.12;13.75;98993.38;5037767;28;1168;-75
2024/01/10 05:23:05;;;;;;;;;;;;;;;21.83;13.97;99002.22;5055732;28;726;-76
2024/01/10 05:25:30;;;;;;;;;;;;;;;21.77;13.95;98997.44;5054671;28;775;-76
2024/01/10 05:27:56;;;;;;;;;;;;;;;21.96;14.02;99010.16;5037655;28;755;-76
2024/01/10 05:30:21;;;;;;;;;;;;;;;22.07;13.63;98994.66;5055615;28;826;-76
2024/01/10 05:32:47;;;;;;;;;;;;;;;22.14;13.85;99010.78;5036630;28;1991;-76
2024/01/10 05:35:13;;;;;;;;;;;;;;;21.93;13.85;99003.31;5037410;28;846;-76
2024/01/10 05:37:38;;;;;;;;;;;;;;;22.12;13.62;99013.22;5038026;28;1103;-76
2024/01/10 05:40:05;;;;;;;;;;;;;;;22.07;13.75;99010.81;5033053;28;1145;-76
2024/01/10 05:42:32;;;;;;;;;;;;;;;22.10;13.74;99010.81;5000289;28;1127;-75
2024/01/10 05:44:58;;;;;;;;;;;;;;;22.07;13.70;99005.16;5036581;28;1191;-75
2024/01/10 05:47:25;;;;;;;;;;;;;;;21.92;13.66;98969.75;5033051;28;1205;-75
2024/01/10 05:49:52;;;;;;;;;;;;;;;22.10;13.61;98998.63;5017191;28;877;-76
2024/01/10 05:52:18;;;;;;;;;;;;;;;22.15;13.67;99001.03;5016625;28;1922;-76
2024/01/10 05:54:44;;;;;;;;;;;;;;;22.11;13.60;99000.28;5016644;28;751;-75
2024/01/10 05:57:10;;;;;;;;;;;;;;;22.18;13.67;98999.41;5033012;28;842;-76
2024/01/10 05:59:35;;;;;;;;;;;;;;;22.22;13.51;99012.28;5032977;28;802;-75
2024/01/10 06:02:02;;;;;;;;;;;;;;;22.08;13.54;99013.25;5016595;28;812;-76
2024/01/10 06:04:30;;;;;;;;;;;;;;;22.02;13.51;99006.44;5016762;28;774;-75
2024/01/10 06:06:57;;;;;;;;;;;;;;;22.22;13.26;99012.28;5000426;28;1231;-76
2024/01/10 06:09:22;;;;;;;;;;;;;;;22.26;13.29;99021.53;5016647;28;771;-75
2024/01/10 06:11:48;;;;;;;;;;;;;;;22.00;13.32;99025.09;5031911;28;1955;-75
2024/01/10 06:14:14;;;;;;;;;;;;;;;22.02;13.49;99031.13;5036116;28;1300;-75
2024/01/10 06:16:39;;;;;;;;;;;;;;;21.83;13.54;99036.22;5036261;28;859;-76
2024/01/10 06:19:05;;;;;;;;;;;;;;;22.12;13.09;99041.56;5019542;28;848;-76
2024/01/10 06:21:31;;;;;;;;;;;;;;;22.08;13.30;99041.59;5050327;28;892;-75
2024/01/10 06:23:56;;;;;;;;;;;;;;;22.03;13.42;99044.09;5032746;28;931;-76
2024/01/10 06:26:22;;;;;;;;;;;;;;;22.08;13.16;99037.97;5049105;28;925;-76
2024/01/10 06:28:48;;;;;;;;;;;;;;;22.26;13.04;99047.06;5032864;28;818;-76
2024/01/10 06:31:13;;;;;;;;;;;;;;;22.21;13.10;99056.03;5034368;28;1985;-76
2024/01/10 06:33:39;;;;;;;;;;;;;;;21.96;13.11;99056.28;5036145;28;1051;-76
2024/01/10 06:36:04;;;;;;;;;;;;;;;22.09;13.18;99053.72;5036119;28;731;-75
2024/01/10 06:38:30;;;;;;;;;;;;;;;22.19;13.08;99069.84;5036194;28;1577;-76
2024/01/10 06:40:56;;;;;;;;;;;;;;;22.30;12.98;99070.50;5036570;28;806;-76
2024/01/10 06:43:21;;;;;;;;;;;;;;;22.17;12.80;99060.13;5036424;28;778;-76
2024/01/10 06:45:48;;;;;;;;;;;;;;;22.07;12.89;99073.16;5052331;28;938;-76
2024/01/10 06:48:14;;;;;;;;;;;;;;;21.80;13.41;99082.38;5057365;28;825;-76
2024/01/10 06:50:40;;;;;;;;;;;;;;;22.26;12.99;99075.41;5040453;28;798;-76
2024/01/10 06:53:05;;;;;;;;;;;;;;;22.24;12.76;99080.72;5056829;28;1976;-76
2024/01/10 06:55:31;;;;;;;;;;;;;;;22.03;13.02;99078.91;5056982;28;814;-75
2024/01/10 06:57:56;;;;;;;;;;;;;;;22.14;13.16;99084.47;5057147;28;794;-76
2024/01/10 07:00:22;;;;;;;;;;;;;;;22.00;13.12;99095.94;5055429;28;865;-76
2024/01/10 07:02:48;;;;;;;;;;;;;;;22.32;12.62;99102.06;5022987;28;974;-76
2024/01/10 07:05:14;;;;;;;;;;;;;;;22.18;12.90;99093.75;5006316;28;1121;-76
2024/01/10 07:07:40;;;;;;;;;;;;;;;22.04;13.19;99099.53;5039246;28;866;-76
2024/01/10 07:10:05;;;;;;;;;;;;;;;22.08;12.87;99103.94;5038827;28;1258;-76
2024/01/10 07:12:31;;;;;;;;;;;;;;;22.19;13.00;99103.84;5035326;28;1965;-76
2024/01/10 07:14:57;;;;;;;;;;;;;;;22.24;12.99;99111.91;5018833;28;1278;-76
2024/01/10 07:17:23;;;;;;;;;;;;;;;22.16;13.12;99118.84;5002940;28;1358;-76
2024/01/10 07:19:48;;;;;;;;;;;;;;;22.22;12.75;99119.19;5035553;28;854;-76
2024/01/10 07:22:15;;;;;;;;;;;;;;;21.97;12.84;99131.59;5018935;28;988;-76
2024/01/10 07:24:40;;;;;;;;;;;;;;;21.93;13.06;99130.03;5018861;28;736;-75
2024/01/10 07:27:07;;;;;;;;;;;;;;;22.08;12.99;99137.16;5019130;28;974;-76
2024/01/10 07:29:34;;;;;;;;;;;;;;;22.22;12.92;99141.88;5002555;28;1207;-76
2024/01/10 07:31:59;;;;;;;;;;;;;;;22.21;12.84;99135.41;5035241;28;1917;-76
2024/01/10 07:34:25;;;;;;;;;;;;;;;21.96;12.98;99134.84;5018937;28;911;-76
2024/01/10 07:36:51;;;;;;;;;;;;;;;22.03;13.17;99135.59;5018702;28;842;-75
2024/01/10 07:39:18;;;;;;;;;;;;;;;21.96;13.06;99138.47;5035199;28;964;-76
2024/01/10 07:41:49;;;;;;;;;;;;;;;22.08;12.78;99142.81;5018441;28;1242;-75
2024/01/10 07:44:15;;;;;;;;;;;;;;;21.93;13.18;99144.19;5036023;28;1295;-76
2024/01/10 07:46:40;;;;;;;;;;;;;;;22.15;13.02;99137.09;5056230;28;1079;-76
2024/01/10 07:49:06;;;;;;;;;;;;;;;21.79;13.14;99143.09;5057526;28;884;-76
2024/01/10 07:51:32;;;;;;;;;;;;;;;22.08;13.08;99149.28;5057190;28;1910;-76
2024/01/10 07:53:59;;;;;;;;;;;;;;;21.78;13.38;99133.00;5056318;28;1094;-75
2024/01/10 07:56:24;;;;;;;;;;;;;;;22.08;13.05;99137.16;5039646;28;1123;-76
2024/01/10 07:58:51;;;;;;;;;;;;;;;21.78;13.09;99135.81;5039059;28;1146;-76
2024/01/10 08:01:17;;;;;;;;;;;;;;;22.01;13.06;99137.22;5056223;28;758;-76
2024/01/10 08:03:42;;;;;;;;;;;;;;;21.88;13.26;99134.13;5056040;28;846;-76
2024/01/10 08:06:08;;;;;;;;;;;;;;;22.13;13.26;99141.59;5039142;28;1260;-76
2024/01/10 08:08:33;;;;;;;;;;;;;;;22.02;13.21;99135.97;5056697;28;699;-75
2024/01/10 08:10:59;;;;;;;;;;;;;;;21.58;13.33;99143.28;5055618;28;1107;-76
2024/01/10 08:13:25;;;;;;;;;;;;;;;21.90;13.24;99150.69;5037589;28;1906;-76
2024/01/10 08:15:51;;;;;;;;;;;;;;;22.06;12.98;99150.94;5037959;28;1248;-76
2024/01/10 08:18:16;;;;;;;;;;;;;;;21.99;13.20;99151.00;5037830;28;797;-76
2024/01/10 08:20:42;;;;;;;;;;;;;;;22.07;12.89;99153.38;5001492;28;1236;-76
2024/01/10 08:23:08;;;;;;;;;;;;;;;22.09;13.22;99162.25;5017903;28;1296;-76
2024/01/10 08:25:33;;;;;;;;;;;;;;;22.19;12.86;99160.56;5017909;28;802;-76
2024/01/10 08:27:59;;;;;;;;;;;;;;;21.89;13.30;99168.91;5001385;28;1143;-76
2024/01/10 08:30:24;;;;;;;;;;;;;;;21.95;13.33;99162.38;5033963;28;798;-76
2024/01/10 08:32:50;;;;;;;;;;;;;;;21.99;13.41;99168.81;5001298;28;1906;-76
2024/01/10 08:35:16;;;;;;;;;;;;;;;22.25;13.12;99155.22;5017632;28;787;-76
2024/01/10 08:37:44;;;;;;;;;;;;;;;22.03;13.04;99157.44;5018097;28;1285;-76
2024/01/10 08:40:14;;;;;;;;;;;;;;;22.00;13.06;99161.13;5017893;28;832;-76
2024/01/10 08:42:43;;;;;;;;;;;;;;;22.23;13.03;99164.16;5033814;28;727;-76
2024/01/10 08:45:10;;;;;;;;;;;;;;;22.22;13.00;99159.69;5033236;28;809;-76
2024/01/10 08:47:36;;;;;;;;;;;;;;;22.10;12.91;99166.72;5037633;28;731;-75
2024/01/10 08:50:04;;;;;;;;;;;;;;;21.89;13.51;99157.59;5037061;28;794;-76
2024/01/10 08:52:30;;;;;;;;;;;;;;;21.97;13.25;99164.81;5004914;28;1902;-76
2024/01/10 08:54:56;;;;;;;;;;;;;;;22.13;13.16;99156.56;5012903;28;939;-76
2024/01/10 08:57:22;;;;;;;;;;;;;;;21.97;13.39;99164.81;4985341;28;1111;-76
2024/01/10 08:59:47;;;;;;;;;;;;;;;21.73;13.29;99161.78;5033724;28;826;-76
2024/01/10 09:02:13;;;;;;;;;;;;;;;21.91;13.17;99155.94;5033786;28;767;-76
2024/01/10 09:04:39;;;;;;;;;;;;;;;21.85;13.38;99163.28;5033706;28;922;-76
2024/01/10 09:07:04;;;;;;;;;;;;;;;22.01;13.46;99154.22;5017119;28;816;-76
2024/01/10 09:09:31;;;;;;;;;;;;;;;21.81;13.38;99152.00;5016762;28;1311;-76
2024/01/10 09:11:56;;;;;;;;;;;;;;;21.69;13.79;99154.53;5033959;28;1910;-76
2024/01/10 09:14:24;;;;;;;;;;;;;;;21.95;13.13;99155.91;5017668;28;1045;-76
2024/01/10 09:16:49;;;;;;;;;;;;;;;22.08;13.30;99157.81;5033661;28;711;-75
2024/01/10 09:19:15;;;;;;;;;;;;;;;22.25;13.04;99158.06;5017274;28;1769;-75
2024/01/10 09:21:40;;;;;;;;;;;;;;;22.04;13.15;99164.72;5033953;28;818;-76
2024/01/10 09:24:08;;;;;;;;;;;;;;;21.94;13.34;99155.09;5033764;28;1007;-75
2024/01/10 09:26:34;;;;;;;;;;;;;;;21.78;13.83;99152.81;5033895;28;1242;-76
2024/01/10 09:29:00;;;;;;;;;;;;;;;22.00;13.63;99144.13;5055854;28;846;-76
2024/01/10 09:31:25;;;;;;;;;;;;;;;21.99;13.41;99145.34;5054860;28;1981;-75
2024/01/10 09:33:51;;;;;;;;;;;;;;;21.94;13.70;99145.81;5054716;28;766;-75
2024/01/10 09:36:17;;;;;;;;;;;;;;;21.93;13.44;99130.81;5055927;28;758;-75
2024/01/10 09:38:42;;;;;;;;;;;;;;;21.88;13.39;99133.31;5036570;28;1116;-76
2024/01/10 09:41:08;;;;;;;;;;;;;;;21.82;13.51;99139.44;5036925;28;1108;-76
2024/01/10 09:43:33;;;;;;;;;;;;;;;21.87;13.81;99140.22;5020579;28;974;-75
2024/01/10 09:46:00;;;;;;;;;;;;;;;21.90;13.64;99137.31;5053428;28;826;-75
2024/01/10 09:48:25;;;;;;;;;;;;;;;21.91;13.66;99127.59;5036703;28;906;-76
2024/01/10 09:50:51;;;;;;;;;;;;;;;22.11;13.67;99136.31;5020568;28;1222;-76
2024/01/10 09:53:31;;;;;;;;;;;;;;;22.02;13.57;99121.81;5020301;28;1971;-76
2024/01/10 09:55:57;;;;;;;;;;;;;;;21.82;13.64;99128.09;5020897;28;743;-75
2024/01/10 09:58:25;;;;;;;;;;;;;;;21.85;13.72;99124.41;5020249;28;951;-76
2024/01/10 10:00:51;;;;;;;;;;;;;;;22.14;13.53;99118.50;5036524;28;786;-76
2024/01/10 10:03:17;;;;;;;;;;;;;;;21.95;13.76;99110.56;5020070;28;1175;-75
2024/01/10 10:05:43;;;;;;;;;;;;;;;21.92;13.84;99105.75;5022470;28;1502;-76
2024/01/10 10:08:09;;;;;;;;;;;;;;;21.98;13.77;99106.91;5040294;28;711;-76
2024/01/10 10:10:35;;;;;;;;;;;;;;;22.02;13.85;99094.31;5036859;28;1084;-76
2024/01/10 10:13:02;;;;;;;;;;;;;;;22.01;13.43;99087.00;5016930;28;1906;-76
2024/01/10 10:15:27;;;;;;;;;;;;;;;22.09;13.46;99080.03;5001215;28;942;-76
2024/01/10 10:17:53;;;;;;;;;;;;;;;22.11;13.46;99079.63;5000763;28;850;-76
2024/01/10 10:20:19;;;;;;;;;;;;;;;22.22;13.80;99074.63;5001099;28;684;-76
2024/01/10 10:23:00;;;;;;;;;;;;;;;22.03;13.98;99061.91;5017270;28;794;-75
2024/01/10 10:25:27;;;;;;;;;;;;;;;21.97;13.89;99049.41;5001026;28;1617;-76
2024/01/10 10:27:52;;;;;;;;;;;;;;;22.07;13.79;99053.34;4997033;28;860;-76
2024/01/10 10:30:18;;;;;;;;;;;;;;;21.71;13.92;99055.75;4997162;28;905;-76
2024/01/10 10:32:44;;;;;;;;;;;;;;;21.93;14.10;99051.47;4981029;28;1975;-75
2024/01/10 10:35:09;;;;;;;;;;;;;;;21.99;14.00;99043.31;4980783;28;927;-76
2024/01/10 10:37:35;;;;;;;;;;;;;;;22.05;13.62;99031.09;4980925;28;788;-76
2024/01/10 10:40:01;;;;;;;;;;;;;;;22.09;13.77;99043.19;4980894;28;926;-76
2024/01/10 10:42:26;;;;;;;;;;;;;;;21.90;13.83;99037.34;4981221;28;748;-75
2024/01/10 10:44:52;;;;;;;;;;;;;;;21.83;14.01;99035.41;4980996;28;935;-76
2024/01/10 10:47:17;;;;;;;;;;;;;;;22.08;14.00;99032.28;4988392;28;766;-76
2024/01/10 10:49:48;;;;;;;;;;;;;;;22.10;13.89;99033.50;5016583;28;965;-76
2024/01/10 10:52:13;;;;;;;;;;;;;;;21.96;13.95;99024.31;4983876;28;2002;-76
2024/01/10 10:54:39;;;;;;;;;;;;;;;22.05;13.73;99022.59;5000112;28;740;-76
2024/01/10 10:57:04;;;;;;;;;;;;;;;21.97;14.14;99020.28;5000448;28;764;-76
2024/01/10 10:59:30;;;;;;;;;;;;;;;22.12;13.65;99024.56;4983854;28;1123;-76
2024/01/10 11:01:55;;;;;;;;;;;;;;;21.92;14.02;99023.59;4983714;28;1132;-76
2024/01/10 11:04:21;;;;;;;;;;;;;;;21.93;14.23;99011.00;5004141;28;849;-76
2024/01/10 11:06:47;;;;;;;;;;;;;;;21.83;14.10;99010.72;5039665;28;806;-76
2024/01/10 11:09:14;;;;;;;;;;;;;;;21.97;13.85;99006.91;5039553;28;790;-76
2024/01/10 11:11:45;;;;;;;;;;;;;;;22.01;14.05;99004.00;5039208;28;1914;-76
2024/01/10 11:14:23;;;;;;;;;;;;;;;21.94;13.97;99006.94;5039216;28;1078;-76
2024/01/10 11:16:49;;;;;;;;;;;;;;;21.82;14.23;99017.59;5021811;28;1175;-76
2024/01/10 11:19:33;;;;;;;;;;;;;;;22.18;13.93;99016.41;5055632;28;805;-76
2024/01/10 11:22:10;;;;;;;;;;;;;;;22.20;13.73;99006.25;5075691;28;721;-76
2024/01/10 11:24:36;;;;;;;;;;;;;;;22.14;14.08;99005.09;5075622;28;767;-76
2024/01/10 11:27:10;;;;;;;;;;;;;;;22.03;14.27;99010.09;5075540;28;1005;-76
2024/01/10 11:29:39;;;;;;;;;;;;;;;21.93;13.98;99011.00;5075791;28;838;-75
2024/01/10 11:32:17;;;;;;;;;;;;;;;22.07;14.08;99005.16;5075398;28;1910;-76
2024/01/10 11:34:56;;;;;;;;;;;;;;;21.91;14.37;98996.44;5075309;28;766;-75
2024/01/10 11:37:22;;;;;;;;;;;;;;;21.92;14.19;99003.75;5042310;28;1277;-76
2024/01/10 11:39:49;;;;;;;;;;;;;;;21.96;14.04;99007.31;5038784;28;1024;-76
2024/01/10 11:42:24;;;;;;;;;;;;;;;21.96;14.09;98998.81;5039056;28;1247;-76
2024/01/10 11:44:50;;;;;;;;;;;;;;;21.92;14.18;98993.22;5038759;28;834;-75
2024/01/10 11:47:18;;;;;;;;;;;;;;;21.97;14.11;98994.78;5005667;28;1366;-75
2024/01/10 11:49:56;;;;;;;;;;;;;;;22.05;14.14;98988.56;5022354;28;951;-75
2024/01/10 11:52:23;;;;;;;;;;;;;;;22.23;13.84;98991.22;5002770;28;1915;-76
2024/01/10 11:54:50;;;;;;;;;;;;;;;21.98;14.22;98985.03;5015013;28;1055;-76
2024/01/10 11:57:20;;;;;;;;;;;;;;;21.97;14.09;98983.44;5015500;28;806;-76
2024/01/10 11:59:45;;;;;;;;;;;;;;;22.09;14.01;98985.72;5015459;28;734;-76
2024/01/10 12:02:12;;;;;;;;;;;;;;;21.87;14.30;98984.38;5015209;28;759;-76
2024/01/10 12:04:38;;;;;;;;;;;;;;;22.00;14.07;98986.22;5014983;28;815;-76
2024/01/10 12:07:07;;;;;;;;;;;;;;;22.05;14.15;98985.75;4995190;28;927;-76
2024/01/10 12:09:32;;;;;;;;;;;;;;;22.20;13.98;98980.72;4963019;28;1050;-76
2024/01/10 12:11:58;;;;;;;;;;;;;;;22.09;14.23;98980.03;4998463;28;1981;-76
2024/01/10 12:14:24;;;;;;;;;;;;;;;22.07;14.21;98976.81;4998539;28;896;-76
2024/01/10 12:16:51;;;;;;;;;;;;;;;22.08;14.00;98989.78;4998476;28;897;-76
2024/01/10 12:19:16;;;;;;;;;;;;;;;22.07;14.07;98988.16;5014928;28;775;-76
2024/01/10 12:21:42;;;;;;;;;;;;;;;22.11;14.01;98991.78;5014969;28;841;-76
2024/01/10 12:24:08;;;;;;;;;;;;;;;21.94;14.22;98995.63;5014487;28;1245;-76
2024/01/10 12:26:33;;;;;;;;;;;;;;;22.08;13.97;98987.75;5054671;28;787;-76
2024/01/10 12:28:59;;;;;;;;;;;;;;;22.12;13.98;98990.53;5036735;28;901;-76
2024/01/10 12:31:28;;;;;;;;;;;;;;;22.01;14.34;98990.66;5037705;28;750;-76
2024/01/10 12:33:56;;;;;;;;;;;;;;;22.06;14.34;98986.53;5037977;28;875;-76
2024/01/10 12:36:22;;;;;;;;;;;;;;;22.23;13.88;98996.91;5038101;28;727;-76
2024/01/10 12:38:47;;;;;;;;;;;;;;;22.06;14.17;98992.22;5051561;28;751;-76
2024/01/10 12:41:16;;;;;;;;;;;;;;;22.05;14.22;98991.41;5038931;28;647;-76
2024/01/10 12:43:42;;;;;;;;;;;;;;;22.03;14.18;98995.91;5056603;28;731;-75
2024/01/10 12:46:10;;;;;;;;;;;;;;;22.00;14.04;98993.91;5055108;28;1182;-75
2024/01/10 12:48:41;;;;;;;;;;;;;;;21.88;14.60;98991.66;5039371;28;782;-76
2024/01/10 12:51:13;;;;;;;;;;;;;;;22.15;14.26;98988.91;5055721;28;727;-76
2024/01/10 12:53:42;;;;;;;;;;;;;;;22.04;14.35;98994.69;5053763;28;1987;-76
2024/01/10 12:56:08;;;;;;;;;;;;;;;21.67;14.46;98993.50;5021065;28;831;-75
2024/01/10 12:58:35;;;;;;;;;;;;;;;21.70;14.35;98981.31;5020716;28;739;-76